CheckWX is a tool to help pilots better visualize weather data.  It is not intended as a substitute for an official pre-flight weather briefing.

15:29:59 UTC

KGBD TAF
Great Bend Municipal Airport
Great Bend, Kansas, USA
KGBD 131438Z 1315/1412 VRB05KT P6SM SCT090 FM131600 32014KT P6SM FEW250 FM140900 35009KT P6SM FEW020

Dec-13@
15:00 UTC

Dec-13 @ 15:00 UTC

Dec-13@
16:00 UTC

Dec-13 @ 16:00 UTC

KGBD 131438Z 1315/1412 VRB05KT P6SM SCT090
Wind
  • Variable at 5 KTS
Cloud Levels
  • Scattered at 9,000' AGL

Dec-13@
16:00 UTC

Dec-13 @ 16:00 UTC

Dec-14@
09:00 UTC

Dec-14 @ 09:00 UTC

FM131600 32014KT P6SM FEW250

From

From Standard forecast or significant change

Wind
  • 320° at 14 KTS
Cloud Levels
  • Few at 25,000' AGL

Dec-14@
09:00 UTC

Dec-14 @ 09:00 UTC

Dec-14@
12:00 UTC

Dec-14 @ 12:00 UTC

FM140900 35009KT P6SM FEW020

From

From Standard forecast or significant change

Wind
  • 350° at 9 KTS
Cloud Levels
  • Few at 2,000' AGL